Time;durP1;ratioP1;P1;durP2;ratioP2;P2;SDS_P1;SDS_P2;PMS_P1;PMS_P2;Temp;Humidity;BMP_temperature;BMP_pressure;BME280_temperature;BME280_humidity;BME280_pressure;Samples;Min_cycle;Max_cycle;Signal;HPM_P1;HPM_P2
2021/10/26 00:01:53;;;;;;;;;;;12.00;99.90;;;;;;5034230;28;19951;-79
2021/10/26 00:04:19;;;;;;;;;;;12.10;99.90;;;;;;5035426;28;20388;-79
2021/10/26 00:06:45;;;;;;;;;;;12.00;99.90;;;;;;5050994;28;19906;-79
2021/10/26 00:09:10;;;;;;;;;;;12.10;99.90;;;;;;5035217;28;19917;-79
2021/10/26 00:11:36;;;;;;;;;;;11.90;99.90;;;;;;5035188;28;19905;-79
2021/10/26 00:14:02;;;;;;;;;;;12.00;99.90;;;;;;5035495;28;19909;-79
2021/10/26 00:16:27;;;;;;;;;;;12.10;99.90;;;;;;5033915;28;20051;-79
2021/10/26 00:18:53;;;;;;;;;;;12.00;99.90;;;;;;5035163;28;19905;-79
2021/10/26 00:21:18;;;;;;;;;;;12.00;99.90;;;;;;5033837;28;19912;-79
2021/10/26 00:23:44;;;;;;;;;;;11.80;99.90;;;;;;5035056;28;19909;-79
2021/10/26 00:26:10;;;;;;;;;;;11.60;99.90;;;;;;5035037;28;20004;-79
2021/10/26 00:28:35;;;;;;;;;;;11.50;99.90;;;;;;5034991;28;19912;-79
2021/10/26 00:31:01;;;;;;;;;;;11.40;99.90;;;;;;5034644;28;19931;-79
2021/10/26 00:33:28;;;;;;;;;;;11.50;99.90;;;;;;5034746;28;19955;-79
2021/10/26 00:35:53;;;;;;;;;;;11.60;99.90;;;;;;5034902;28;19971;-79
2021/10/26 00:38:19;;;;;;;;;;;11.50;99.90;;;;;;5049978;28;20405;-78
2021/10/26 00:40:45;;;;;;;;;;;11.40;99.90;;;;;;5034727;28;19912;-79
2021/10/26 00:43:11;;;;;;;;;;;11.50;99.90;;;;;;5034709;28;20357;-79
2021/10/26 00:45:36;;;;;;;;;;;11.50;99.90;;;;;;5034585;28;19905;-79
2021/10/26 00:48:02;;;;;;;;;;;11.50;99.90;;;;;;5034577;28;20289;-79
2021/10/26 00:50:28;;;;;;;;;;;11.50;99.90;;;;;;5034478;28;19912;-79
2021/10/26 00:52:54;;;;;;;;;;;11.50;99.90;;;;;;5034437;28;19982;-79
2021/10/26 00:55:19;;;;;;;;;;;11.40;99.90;;;;;;5033184;28;19909;-79
2021/10/26 00:57:46;;;;;;;;;;;11.60;99.90;;;;;;5034377;28;19912;-79
2021/10/26 01:00:12;;;;;;;;;;;11.70;99.90;;;;;;5034508;28;19912;-79
2021/10/26 01:02:37;;;;;;;;;;;11.70;99.90;;;;;;5033821;28;19912;-79
2021/10/26 01:05:05;;;;;;;;;;;11.40;99.90;;;;;;5033024;28;19988;-78
2021/10/26 01:07:31;;;;;;;;;;;11.60;99.90;;;;;;5034156;28;19913;-79
2021/10/26 01:09:57;;;;;;;;;;;11.60;99.90;;;;;;5032475;28;19927;-78
2021/10/26 01:12:22;;;;;;;;;;;11.70;99.90;;;;;;5049388;28;20266;-79
2021/10/26 01:14:48;;;;;;;;;;;11.80;99.90;;;;;;5034111;28;19932;-79
2021/10/26 01:17:14;;;;;;;;;;;11.80;99.90;;;;;;5034085;28;20008;-78
2021/10/26 01:19:44;;;;;;;;;;;11.40;99.90;;;;;;5034044;28;19924;-79
2021/10/26 01:22:09;;;;;;;;;;;11.50;99.90;;;;;;5034094;28;19966;-78
2021/10/26 01:24:35;;;;;;;;;;;11.60;99.90;;;;;;5033932;28;19905;-79
2021/10/26 01:27:01;;;;;;;;;;;11.70;99.90;;;;;;5033921;28;19924;-78
2021/10/26 01:29:26;;;;;;;;;;;11.70;99.90;;;;;;5033876;28;19905;-79
2021/10/26 01:31:52;;;;;;;;;;;11.80;99.90;;;;;;5034042;28;20419;-80
2021/10/26 01:34:17;;;;;;;;;;;11.50;99.90;;;;;;5033845;28;19912;-79
2021/10/26 01:36:43;;;;;;;;;;;11.50;99.90;;;;;;5033822;28;20284;-80
2021/10/26 01:39:09;;;;;;;;;;;11.20;99.90;;;;;;5049015;28;19905;-78
2021/10/26 01:41:34;;;;;;;;;;;11.10;99.90;;;;;;5032102;28;19937;-79
2021/10/26 01:44:00;;;;;;;;;;;10.90;99.90;;;;;;5031843;28;19915;-79
2021/10/26 01:46:26;;;;;;;;;;;10.80;99.90;;;;;;5033862;28;19912;-78
2021/10/26 01:48:51;;;;;;;;;;;10.70;99.90;;;;;;5032361;28;19905;-79
2021/10/26 01:51:17;;;;;;;;;;;10.70;99.90;;;;;;5032608;28;19999;-79
2021/10/26 01:53:43;;;;;;;;;;;10.70;99.90;;;;;;5048842;28;19909;-78
2021/10/26 01:56:08;;;;;;;;;;;10.70;99.90;;;;;;5033652;28;19995;-79
2021/10/26 01:58:35;;;;;;;;;;;10.70;99.90;;;;;;5033578;28;19905;-79
2021/10/26 02:01:00;;;;;;;;;;;11.00;99.90;;;;;;5033473;28;19954;-79
2021/10/26 02:03:26;;;;;;;;;;;11.00;99.90;;;;;;5033591;28;19991;-79
2021/10/26 02:05:52;;;;;;;;;;;11.10;99.90;;;;;;5033557;28;19913;-79
2021/10/26 02:08:18;;;;;;;;;;;11.20;99.90;;;;;;5033417;28;19935;-79
2021/10/26 02:10:43;;;;;;;;;;;11.40;99.90;;;;;;5033603;28;19912;-79
2021/10/26 02:13:09;;;;;;;;;;;11.40;99.90;;;;;;5033872;28;20010;-79
2021/10/26 02:15:34;;;;;;;;;;;11.30;99.90;;;;;;5033664;28;19905;-79
2021/10/26 02:18:00;;;;;;;;;;;11.00;99.90;;;;;;5033766;28;20328;-79
2021/10/26 02:20:26;;;;;;;;;;;10.80;99.90;;;;;;5033554;28;20004;-79
2021/10/26 02:22:51;;;;;;;;;;;11.00;99.90;;;;;;5033491;28;19936;-79
2021/10/26 02:25:17;;;;;;;;;;;10.90;99.90;;;;;;5033383;28;20284;-79
2021/10/26 02:27:43;;;;;;;;;;;10.70;99.90;;;;;;5033350;28;19905;-79
2021/10/26 02:30:09;;;;;;;;;;;10.90;99.90;;;;;;5033359;28;19911;-78
2021/10/26 02:32:34;;;;;;;;;;;10.80;99.90;;;;;;5033191;28;19909;-79
2021/10/26 02:35:00;;;;;;;;;;;10.70;99.90;;;;;;5033518;28;19913;-79
2021/10/26 02:37:26;;;;;;;;;;;10.70;99.90;;;;;;5033430;28;19912;-79
2021/10/26 02:39:51;;;;;;;;;;;10.70;99.90;;;;;;5033190;28;20357;-79
2021/10/26 02:42:17;;;;;;;;;;;10.70;99.90;;;;;;5033263;28;19939;-79
2021/10/26 02:44:43;;;;;;;;;;;10.60;99.90;;;;;;5031971;28;19905;-79
2021/10/26 02:47:08;;;;;;;;;;;10.70;99.90;;;;;;5048527;28;20393;-79
2021/10/26 02:49:34;;;;;;;;;;;10.60;99.90;;;;;;5033170;28;19905;-78
2021/10/26 02:52:00;;;;;;;;;;;10.60;99.90;;;;;;5048415;28;19935;-78
2021/10/26 02:54:25;;;;;;;;;;;10.50;99.90;;;;;;5035170;28;20377;-78
2021/10/26 02:56:51;;;;;;;;;;;10.50;99.90;;;;;;5036759;28;19905;-78
2021/10/26 02:59:18;;;;;;;;;;;10.50;99.90;;;;;;5036903;28;20280;-79
2021/10/26 03:01:45;;;;;;;;;;;10.60;99.90;;;;;;5036656;28;19905;-79
2021/10/26 03:04:10;;;;;;;;;;;10.80;99.90;;;;;;5036633;28;19916;-78
2021/10/26 03:06:36;;;;;;;;;;;11.00;99.90;;;;;;5051887;28;19905;-79
2021/10/26 03:09:02;;;;;;;;;;;11.00;99.90;;;;;;5036447;28;19944;-79
2021/10/26 03:11:28;;;;;;;;;;;11.00;99.90;;;;;;5036611;28;19905;-80
2021/10/26 03:13:53;;;;;;;;;;;11.10;99.90;;;;;;5036893;28;19924;-79
2021/10/26 03:16:19;;;;;;;;;;;11.10;99.90;;;;;;5036359;28;19905;-80
2021/10/26 03:18:44;;;;;;;;;;;11.10;99.90;;;;;;5036347;28;19995;-79
2021/10/26 03:21:10;;;;;;;;;;;11.20;99.90;;;;;;5036619;28;19996;-79
2021/10/26 03:23:36;;;;;;;;;;;11.20;99.90;;;;;;5036285;28;20400;-78
2021/10/26 03:26:01;;;;;;;;;;;11.30;99.90;;;;;;5034980;28;19912;-79
2021/10/26 03:28:27;;;;;;;;;;;11.50;99.90;;;;;;5036137;28;19905;-79
2021/10/26 03:30:53;;;;;;;;;;;11.40;99.90;;;;;;5034897;28;20005;-79
2021/10/26 03:33:19;;;;;;;;;;;11.30;99.90;;;;;;5036152;28;20007;-79
2021/10/26 03:35:44;;;;;;;;;;;11.40;99.90;;;;;;5036339;28;19905;-79
2021/10/26 03:38:11;;;;;;;;;;;11.60;99.90;;;;;;5034624;28;20017;-80
2021/10/26 03:40:36;;;;;;;;;;;11.50;99.90;;;;;;5051262;28;19931;-78
2021/10/26 03:43:02;;;;;;;;;;;11.40;99.90;;;;;;5035944;28;19909;-79
2021/10/26 03:45:28;;;;;;;;;;;11.40;99.90;;;;;;5036331;28;19909;-79
2021/10/26 03:47:53;;;;;;;;;;;11.10;99.90;;;;;;5035898;28;19905;-79
2021/10/26 03:50:19;;;;;;;;;;;11.20;99.90;;;;;;5035806;28;19943;-79
2021/10/26 03:52:44;;;;;;;;;;;11.30;99.90;;;;;;5035695;28;20384;-79
2021/10/26 03:55:10;;;;;;;;;;;11.30;99.90;;;;;;5035721;28;19909;-79
2021/10/26 03:57:36;;;;;;;;;;;11.20;99.90;;;;;;5036027;28;19950;-79
2021/10/26 04:00:04;;;;;;;;;;;11.20;99.90;;;;;;5050999;28;19912;-79
2021/10/26 04:02:30;;;;;;;;;;;11.00;99.90;;;;;;5035635;28;19951;-79
2021/10/26 04:05:14;;;;;;;;;;;10.80;99.90;;;;;;5034876;28;19944;-78
2021/10/26 04:07:49;;;;;;;;;;;10.70;99.90;;;;;;5033779;28;19916;-79
2021/10/26 04:10:18;;;;;;;;;;;10.50;99.90;;;;;;5035639;28;19995;-79
2021/10/26 04:12:44;;;;;;;;;;;10.60;99.90;;;;;;5035574;28;19982;-78
2021/10/26 04:15:09;;;;;;;;;;;10.50;99.90;;;;;;5035396;28;19940;-78
2021/10/26 04:17:35;;;;;;;;;;;10.40;99.90;;;;;;5035216;28;19998;-79
2021/10/26 04:20:00;;;;;;;;;;;10.30;99.90;;;;;;5035815;28;19912;-79
2021/10/26 04:22:27;;;;;;;;;;;10.20;99.90;;;;;;5035223;28;19927;-79
2021/10/26 04:24:52;;;;;;;;;;;10.50;99.90;;;;;;5035255;28;19951;-79
2021/10/26 04:27:18;;;;;;;;;;;10.70;99.90;;;;;;5035075;28;19971;-79
2021/10/26 04:29:45;;;;;;;;;;;10.90;99.90;;;;;;5033739;28;19913;-79
2021/10/26 04:32:11;;;;;;;;;;;10.90;99.90;;;;;;5034919;28;19978;-79
2021/10/26 04:34:37;;;;;;;;;;;11.00;99.90;;;;;;5033667;28;20370;-79
2021/10/26 04:37:04;;;;;;;;;;;10.90;99.90;;;;;;5034973;28;19963;-79
2021/10/26 04:39:29;;;;;;;;;;;10.80;99.90;;;;;;5034754;28;19948;-79
2021/10/26 04:41:55;;;;;;;;;;;10.70;99.90;;;;;;5033831;28;19944;-78
2021/10/26 04:44:20;;;;;;;;;;;10.70;99.90;;;;;;5034814;28;20459;-79
2021/10/26 04:46:46;;;;;;;;;;;10.80;99.90;;;;;;5034914;28;19943;-79
2021/10/26 04:49:12;;;;;;;;;;;10.70;99.90;;;;;;5050261;28;20269;-79
2021/10/26 04:51:37;;;;;;;;;;;10.80;99.90;;;;;;5034756;28;20007;-79
2021/10/26 04:54:03;;;;;;;;;;;10.80;99.90;;;;;;5033338;28;19905;-79
2021/10/26 04:56:28;;;;;;;;;;;10.90;99.90;;;;;;5049898;28;19909;-79
2021/10/26 04:58:54;;;;;;;;;;;10.80;99.90;;;;;;5033276;28;20310;-79
2021/10/26 05:01:20;;;;;;;;;;;10.70;99.90;;;;;;5034446;28;20409;-78
2021/10/26 05:03:46;;;;;;;;;;;10.90;99.90;;;;;;5033077;28;19913;-79
2021/10/26 05:06:11;;;;;;;;;;;11.00;99.90;;;;;;5034672;28;19908;-79
2021/10/26 05:08:37;;;;;;;;;;;11.10;99.90;;;;;;5049479;28;19924;-78
2021/10/26 05:11:02;;;;;;;;;;;11.20;99.90;;;;;;5034274;28;19905;-78
2021/10/26 05:13:30;;;;;;;;;;;11.30;99.90;;;;;;5034159;28;19909;-79
2021/10/26 05:15:57;;;;;;;;;;;11.20;99.90;;;;;;5034158;28;20019;-78
2021/10/26 05:18:23;;;;;;;;;;;11.30;99.90;;;;;;5033972;28;19905;-78
2021/10/26 05:20:50;;;;;;;;;;;11.40;99.90;;;;;;5049407;28;19952;-78
2021/10/26 05:23:17;;;;;;;;;;;11.40;99.90;;;;;;5049415;28;19905;-79
2021/10/26 05:25:47;;;;;;;;;;;11.40;99.90;;;;;;5034042;28;19944;-79
2021/10/26 05:28:13;;;;;;;;;;;11.40;99.90;;;;;;5034541;28;20381;-79
2021/10/26 05:30:38;;;;;;;;;;;11.30;99.90;;;;;;5034029;28;20011;-79
2021/10/26 05:33:04;;;;;;;;;;;11.40;99.90;;;;;;5033921;28;20003;-79
2021/10/26 05:35:30;;;;;;;;;;;11.40;99.90;;;;;;5033910;28;20374;-79
2021/10/26 05:37:55;;;;;;;;;;;11.50;99.90;;;;;;5032562;28;20368;-79
2021/10/26 05:40:21;;;;;;;;;;;11.60;99.90;;;;;;5033857;28;19920;-78
2021/10/26 05:42:46;;;;;;;;;;;11.40;99.90;;;;;;5033869;28;19905;-79
2021/10/26 05:45:12;;;;;;;;;;;11.40;99.90;;;;;;5033965;28;19905;-79
2021/10/26 05:47:38;;;;;;;;;;;11.40;99.90;;;;;;5033757;28;19905;-79
2021/10/26 05:50:04;;;;;;;;;;;11.40;99.90;;;;;;5049052;28;19998;-79
2021/10/26 05:52:29;;;;;;;;;;;11.50;99.90;;;;;;5032352;28;19909;-79
2021/10/26 05:54:55;;;;;;;;;;;11.50;99.90;;;;;;5033872;28;20000;-79
2021/10/26 05:57:20;;;;;;;;;;;11.50;99.90;;;;;;5034198;28;19905;-79
2021/10/26 05:59:46;;;;;;;;;;;11.40;99.90;;;;;;5033619;28;19912;-79
2021/10/26 06:02:11;;;;;;;;;;;11.50;99.90;;;;;;5033660;28;19912;-79
2021/10/26 06:04:37;;;;;;;;;;;11.50;99.90;;;;;;5048878;28;20289;-79
2021/10/26 06:07:03;;;;;;;;;;;11.60;99.90;;;;;;5033644;28;19905;-79
2021/10/26 06:09:30;;;;;;;;;;;11.50;99.90;;;;;;5033357;28;19917;-79
2021/10/26 06:11:57;;;;;;;;;;;11.40;99.90;;;;;;5032153;28;19905;-79
2021/10/26 06:14:22;;;;;;;;;;;11.40;99.90;;;;;;5033707;28;19905;-79
2021/10/26 06:16:48;;;;;;;;;;;11.50;99.90;;;;;;5048806;28;20035;-79
2021/10/26 06:19:14;;;;;;;;;;;11.60;99.90;;;;;;5048776;28;19905;-79
2021/10/26 06:21:40;;;;;;;;;;;11.50;99.90;;;;;;5032147;28;19916;-79
2021/10/26 06:24:06;;;;;;;;;;;11.50;99.90;;;;;;5032136;28;19905;-79
2021/10/26 06:26:32;;;;;;;;;;;11.60;99.90;;;;;;5033419;28;19988;-79
2021/10/26 06:28:58;;;;;;;;;;;11.30;99.90;;;;;;5034599;28;20297;-79
2021/10/26 06:31:23;;;;;;;;;;;11.30;99.90;;;;;;5037615;28;19905;-79
2021/10/26 06:33:49;;;;;;;;;;;11.40;99.90;;;;;;5037280;28;19916;-80
2021/10/26 06:36:15;;;;;;;;;;;11.40;99.90;;;;;;5052566;28;19912;-79
2021/10/26 06:38:40;;;;;;;;;;;11.30;99.90;;;;;;5037067;28;19909;-79
2021/10/26 06:41:06;;;;;;;;;;;11.50;99.90;;;;;;5037085;28;19999;-79
2021/10/26 06:43:32;;;;;;;;;;;11.60;99.90;;;;;;5037009;28;19913;-79
2021/10/26 06:45:58;;;;;;;;;;;11.80;99.90;;;;;;5037005;28;19905;-79
2021/10/26 06:48:24;;;;;;;;;;;11.90;99.90;;;;;;5035651;28;19970;-79
2021/10/26 06:50:50;;;;;;;;;;;11.80;99.90;;;;;;5052203;28;19935;-78
2021/10/26 06:53:17;;;;;;;;;;;11.90;99.90;;;;;;5036897;28;19917;-79
2021/10/26 06:55:44;;;;;;;;;;;12.00;99.90;;;;;;5036883;28;19905;-79
2021/10/26 06:58:10;;;;;;;;;;;12.00;99.90;;;;;;5036730;28;19905;-79
2021/10/26 07:00:35;;;;;;;;;;;12.10;99.90;;;;;;5036393;28;20293;-80
2021/10/26 07:03:03;;;;;;;;;;;12.10;99.90;;;;;;5036787;28;20277;-79
2021/10/26 07:05:30;;;;;;;;;;;12.00;99.90;;;;;;5036913;28;19997;-80
2021/10/26 07:07:56;;;;;;;;;;;12.00;99.90;;;;;;5036325;28;19912;-78
2021/10/26 07:10:21;;;;;;;;;;;12.20;99.90;;;;;;5035091;28;19909;-79
2021/10/26 07:12:48;;;;;;;;;;;12.30;99.90;;;;;;5036583;28;19959;-79
2021/10/26 07:15:14;;;;;;;;;;;12.40;99.90;;;;;;5036430;28;19909;-79
2021/10/26 07:17:42;;;;;;;;;;;12.50;99.90;;;;;;5036402;28;19909;-79
2021/10/26 07:20:13;;;;;;;;;;;12.50;99.90;;;;;;5036993;28;19909;-79
2021/10/26 07:22:39;;;;;;;;;;;12.40;99.90;;;;;;5051665;28;20370;-78
2021/10/26 07:25:08;;;;;;;;;;;12.20;99.90;;;;;;5036279;28;19905;-79
2021/10/26 07:27:36;;;;;;;;;;;12.40;99.90;;;;;;5036798;28;19931;-79
2021/10/26 07:30:02;;;;;;;;;;;12.20;99.90;;;;;;5036201;28;19959;-79
2021/10/26 07:32:28;;;;;;;;;;;12.40;99.90;;;;;;5036114;28;19909;-79
2021/10/26 07:34:53;;;;;;;;;;;12.40;99.90;;;;;;5036157;28;19951;-79
2021/10/26 07:37:26;;;;;;;;;;;12.70;99.90;;;;;;5036099;28;20323;-79
2021/10/26 07:39:53;;;;;;;;;;;12.90;99.90;;;;;;5036195;28;19958;-80
2021/10/26 07:42:20;;;;;;;;;;;13.00;99.90;;;;;;5034777;28;19994;-79
2021/10/26 07:44:49;;;;;;;;;;;12.80;99.90;;;;;;5035920;28;19909;-81
2021/10/26 07:47:19;;;;;;;;;;;13.00;99.90;;;;;;5035900;28;19905;-80
2021/10/26 07:49:47;;;;;;;;;;;13.10;99.90;;;;;;5035893;28;19912;-79
2021/10/26 07:52:13;;;;;;;;;;;13.40;99.90;;;;;;5035659;28;19912;-81
2021/10/26 07:54:39;;;;;;;;;;;14.10;99.90;;;;;;5035998;28;19905;-81
2021/10/26 07:57:05;;;;;;;;;;;14.90;99.90;;;;;;5035721;28;19951;-81
2021/10/26 07:59:30;;;;;;;;;;;15.60;99.90;;;;;;5050999;28;19996;-80
2021/10/26 08:01:56;;;;;;;;;;;17.00;99.90;;;;;;5035917;28;19947;-81
2021/10/26 08:04:22;;;;;;;;;;;17.60;99.90;;;;;;5035632;28;19927;-80
2021/10/26 08:06:48;;;;;;;;;;;18.10;99.90;;;;;;5035739;28;19909;-80
2021/10/26 08:09:14;;;;;;;;;;;18.30;99.90;;;;;;5035368;28;19923;-80
2021/10/26 08:11:39;;;;;;;;;;;18.40;99.70;;;;;;5035829;28;20000;-80
2021/10/26 08:14:05;;;;;;;;;;;18.50;99.90;;;;;;5035510;28;19992;-80
2021/10/26 08:16:31;;;;;;;;;;;18.60;99.00;;;;;;5035328;28;20453;-80
2021/10/26 08:18:57;;;;;;;;;;;18.60;99.30;;;;;;5035330;28;19912;-80
2021/10/26 08:21:22;;;;;;;;;;;19.10;98.50;;;;;;5035265;28;19912;-81
2021/10/26 08:23:49;;;;;;;;;;;19.00;97.50;;;;;;5035232;28;19943;-81
2021/10/26 08:26:20;;;;;;;;;;;18.60;98.70;;;;;;5035355;28;19912;-80
2021/10/26 08:28:48;;;;;;;;;;;18.40;98.90;;;;;;5050166;28;19947;-80
2021/10/26 08:34:07;;;;;;;;;;;18.70;99.80;;;;;;5034905;28;20006;-81
2021/10/26 08:36:28;;;;;;;;;;;18.80;99.10;;;;;;5034578;28;19912;-81
2021/10/26 08:38:53;;;;;;;;;;;20.00;97.80;;;;;;5033584;28;19909;-80
2021/10/26 08:41:21;;;;;;;;;;;20.00;96.60;;;;;;5034873;28;20328;-81
2021/10/26 08:43:47;;;;;;;;;;;19.60;96.40;;;;;;5034747;28;19905;-81
2021/10/26 08:46:12;;;;;;;;;;;19.40;98.20;;;;;;5034719;28;19905;-80
2021/10/26 08:48:41;;;;;;;;;;;19.40;98.10;;;;;;5034826;28;19905;-81
2021/10/26 08:51:07;;;;;;;;;;;18.90;99.50;;;;;;5034331;28;20289;-81
2021/10/26 08:53:33;;;;;;;;;;;18.40;99.90;;;;;;5033148;28;19952;-80
2021/10/26 08:56:02;;;;;;;;;;;17.90;99.90;;;;;;5033311;28;19905;-81
2021/10/26 08:58:29;;;;;;;;;;;17.70;99.90;;;;;;5034552;28;19905;-80
2021/10/26 09:00:54;;;;;;;;;;;17.30;99.90;;;;;;5034795;28;20281;-81
2021/10/26 09:03:21;;;;;;;;;;;17.50;99.90;;;;;;5034377;28;19909;-80
2021/10/26 09:05:48;;;;;;;;;;;16.90;99.90;;;;;;5034707;28;19940;-81
2021/10/26 09:08:13;;;;;;;;;;;16.60;99.90;;;;;;5034147;28;19912;-81
2021/10/26 09:10:39;;;;;;;;;;;17.00;99.90;;;;;;5034340;28;20281;-80
2021/10/26 09:18:41;;;;;;;;;;;17.30;99.90;;;;;;5034773;28;19911;-80
2021/10/26 09:21:27;;;;;;;;;;;17.40;99.90;;;;;;5034132;28;19984;-80
2021/10/26 09:23:56;;;;;;;;;;;18.10;99.90;;;;;;5032487;28;20004;-81
2021/10/26 09:26:22;;;;;;;;;;;18.30;99.90;;;;;;5034044;28;20377;-80
2021/10/26 09:28:50;;;;;;;;;;;18.70;99.90;;;;;;5034652;28;20003;-81
2021/10/26 09:31:22;;;;;;;;;;;19.20;99.90;;;;;;5034016;28;19905;-81
2021/10/26 09:33:55;;;;;;;;;;;19.30;99.90;;;;;;5034530;28;19934;-81
2021/10/26 09:36:30;;;;;;;;;;;19.00;99.90;;;;;;5033980;28;19908;-80
2021/10/26 09:39:06;;;;;;;;;;;19.70;99.90;;;;;;5033843;28;20405;-80
2021/10/26 09:41:36;;;;;;;;;;;21.00;97.50;;;;;;5034219;28;19913;-80
2021/10/26 09:44:28;;;;;;;;;;;21.70;96.50;;;;;;5033935;28;19931;-80
2021/10/26 09:46:55;;;;;;;;;;;21.40;96.10;;;;;;5033441;28;20289;-81
2021/10/26 09:49:20;;;;;;;;;;;22.60;94.30;;;;;;5049661;28;19909;-81
2021/10/26 09:51:47;;;;;;;;;;;22.50;92.20;;;;;;5033785;28;20399;-81
2021/10/26 09:54:17;;;;;;;;;;;22.20;92.90;;;;;;5033742;28;19920;-81
2021/10/26 09:57:00;;;;;;;;;;;21.90;93.70;;;;;;5033727;28;19955;-82
2021/10/26 09:59:26;;;;;;;;;;;22.20;93.70;;;;;;5048660;28;19996;-81
2021/10/26 10:01:52;;;;;;;;;;;21.80;93.60;;;;;;5033691;28;20067;-81
2021/10/26 10:04:26;;;;;;;;;;;22.90;92.60;;;;;;5035913;28;20344;-81
2021/10/26 10:06:51;;;;;;;;;;;22.50;91.30;;;;;;5037799;28;20332;-80
2021/10/26 10:09:21;;;;;;;;;;;22.20;93.00;;;;;;5037615;28;19917;-80
2021/10/26 10:12:04;;;;;;;;;;;21.60;93.30;;;;;;5037733;28;19905;-80
2021/10/26 10:14:33;;;;;;;;;;;21.70;94.30;;;;;;5037654;28;19909;-80
2021/10/26 10:17:00;;;;;;;;;;;21.60;93.60;;;;;;5037558;28;19905;-79
2021/10/26 10:19:26;;;;;;;;;;;21.50;94.80;;;;;;5052893;28;19905;-80
2021/10/26 10:21:52;;;;;;;;;;;21.10;93.90;;;;;;5037490;28;19905;-81
2021/10/26 10:24:18;;;;;;;;;;;21.10;94.50;;;;;;5038005;28;20011;-80
2021/10/26 10:26:51;;;;;;;;;;;20.90;94.20;;;;;;5037358;28;19959;-81
2021/10/26 10:29:20;;;;;;;;;;;20.40;95.70;;;;;;5037499;28;19905;-81
2021/10/26 10:31:47;;;;;;;;;;;20.60;96.20;;;;;;5052661;28;19905;-80
2021/10/26 10:34:13;;;;;;;;;;;20.70;95.10;;;;;;5037162;28;19955;-81
2021/10/26 10:36:42;;;;;;;;;;;20.20;95.90;;;;;;5037210;28;19912;-80
2021/10/26 10:39:08;;;;;;;;;;;20.50;96.20;;;;;;5037121;28;19905;-80
2021/10/26 10:41:36;;;;;;;;;;;20.80;95.70;;;;;;5052426;28;19912;-80
2021/10/26 10:44:03;;;;;;;;;;;20.90;94.60;;;;;;5052350;28;20365;-80
2021/10/26 10:46:48;;;;;;;;;;;21.10;93.70;;;;;;5037598;28;20055;-80
2021/10/26 10:49:19;;;;;;;;;;;21.70;92.10;;;;;;5035680;28;19912;-80
2021/10/26 10:51:53;;;;;;;;;;;21.20;92.50;;;;;;5036923;28;19905;-80
2021/10/26 10:54:51;;;;;;;;;;;20.70;93.20;;;;;;5036882;28;19958;-80
2021/10/26 10:57:29;;;;;;;;;;;20.10;94.10;;;;;;5037174;28;19905;-81
2021/10/26 10:59:56;;;;;;;;;;;20.40;94.10;;;;;;5035510;28;20365;-80
2021/10/26 11:02:23;;;;;;;;;;;21.20;92.80;;;;;;5036740;28;19940;-80
2021/10/26 11:04:50;;;;;;;;;;;21.30;92.40;;;;;;5036972;28;19905;-81
2021/10/26 11:07:36;;;;;;;;;;;20.70;92.50;;;;;;5031051;28;19921;-80
2021/10/26 11:10:02;;;;;;;;;;;20.50;93.70;;;;;;5027351;28;19959;-80
2021/10/26 11:12:29;;;;;;;;;;;20.80;92.60;;;;;;5035798;28;19962;-80
2021/10/26 11:15:06;;;;;;;;;;;20.60;92.40;;;;;;5035374;28;19905;-81
2021/10/26 11:17:32;;;;;;;;;;;20.70;92.10;;;;;;5033296;28;19935;-80
2021/10/26 11:20:30;;;;;;;;;;;21.20;91.70;;;;;;5034161;28;19912;-81
2021/10/26 11:22:58;;;;;;;;;;;21.10;92.00;;;;;;5033644;28;20337;-81
2021/10/26 11:25:36;;;;;;;;;;;21.10;91.70;;;;;;5036334;28;19905;-81
2021/10/26 11:28:15;;;;;;;;;;;20.70;92.00;;;;;;5036167;28;20384;-81
2021/10/26 11:30:46;;;;;;;;;;;23.20;87.80;;;;;;5036458;28;19909;-81
2021/10/26 11:33:12;;;;;;;;;;;23.40;81.40;;;;;;5034813;28;19916;-81
2021/10/26 11:35:52;;;;;;;;;;;22.30;84.70;;;;;;5034852;28;19905;-81
2021/10/26 11:38:19;;;;;;;;;;;21.40;89.50;;;;;;5034546;28;20443;-81
2021/10/26 11:40:51;;;;;;;;;;;21.40;89.80;;;;;;5051359;28;19997;-80
2021/10/26 11:43:17;;;;;;;;;;;22.00;86.60;;;;;;5036098;28;19911;-82
2021/10/26 11:46:02;;;;;;;;;;;23.10;82.80;;;;;;5036517;28;19905;-80
2021/10/26 11:48:37;;;;;;;;;;;23.90;78.50;;;;;;5051252;28;19912;-81
2021/10/26 11:51:20;;;;;;;;;;;21.70;83.10;;;;;;5036128;28;19912;-81
2021/10/26 11:53:45;;;;;;;;;;;20.70;88.30;;;;;;5035733;28;19909;-80
2021/10/26 11:56:37;;;;;;;;;;;23.10;83.10;;;;;;5035722;28;19954;-81
2021/10/26 11:59:05;;;;;;;;;;;22.20;82.00;;;;;;5035338;28;19937;-81
2021/10/26 12:01:34;;;;;;;;;;;22.60;86.60;;;;;;5035908;28;19909;-82
2021/10/26 12:04:01;;;;;;;;;;;26.50;73.10;;;;;;5035837;28;19947;-80
2021/10/26 12:06:30;;;;;;;;;;;28.60;67.10;;;;;;5034243;28;20389;-81
2021/10/26 12:08:57;;;;;;;;;;;29.30;64.30;;;;;;5035192;28;19924;-82
2021/10/26 12:11:30;;;;;;;;;;;29.80;60.80;;;;;;5035492;28;19916;-81
2021/10/26 12:14:12;;;;;;;;;;;28.80;61.80;;;;;;5050649;28;19915;-81
2021/10/26 12:16:38;;;;;;;;;;;27.80;63.50;;;;;;5035587;28;20541;-81
2021/10/26 12:19:03;;;;;;;;;;;29.00;62.10;;;;;;5050627;28;20012;-80
2021/10/26 12:21:29;;;;;;;;;;;29.90;58.50;;;;;;5050567;28;20006;-81
2021/10/26 12:23:55;;;;;;;;;;;29.50;59.20;;;;;;5035146;28;20289;-81
2021/10/26 12:26:21;;;;;;;;;;;29.90;57.70;;;;;;5034899;28;19960;-81
2021/10/26 12:28:57;;;;;;;;;;;30.30;55.80;;;;;;5035118;28;19905;-80
2021/10/26 12:31:26;;;;;;;;;;;30.60;55.90;;;;;;5035052;28;19911;-80
2021/10/26 12:34:01;;;;;;;;;;;30.10;55.60;;;;;;5050268;28;19916;-82
2021/10/26 12:36:27;;;;;;;;;;;31.30;55.50;;;;;;5033705;28;20407;-81
2021/10/26 12:39:03;;;;;;;;;;;31.60;54.10;;;;;;5033562;28;19996;-81
2021/10/26 12:41:36;;;;;;;;;;;31.40;53.40;;;;;;5034870;28;19941;-81
2021/10/26 12:44:04;;;;;;;;;;;29.50;55.90;;;;;;5035374;28;20277;-80
2021/10/26 12:46:30;;;;;;;;;;;30.80;55.20;;;;;;5050107;28;19975;-82
2021/10/26 12:49:06;;;;;;;;;;;29.90;54.50;;;;;;5034911;28;20373;-81
2021/10/26 12:51:32;;;;;;;;;;;30.60;54.90;;;;;;5034668;28;19905;-81
2021/10/26 12:54:08;;;;;;;;;;;28.90;55.10;;;;;;5033315;28;20000;-80
2021/10/26 12:56:34;;;;;;;;;;;28.00;55.50;;;;;;5034902;28;19905;-79
2021/10/26 12:59:08;;;;;;;;;;;28.80;56.70;;;;;;5034682;28;19992;-79
2021/10/26 13:01:41;;;;;;;;;;;28.00;57.60;;;;;;5033225;28;19905;-82
2021/10/26 13:04:10;;;;;;;;;;;27.80;56.90;;;;;;5034466;28;19988;-83
2021/10/26 13:06:37;;;;;;;;;;;28.30;57.10;;;;;;5033140;28;19909;-83
2021/10/26 13:09:05;;;;;;;;;;;28.90;57.80;;;;;;5034176;28;19916;-80
2021/10/26 13:11:32;;;;;;;;;;;28.50;57.20;;;;;;5034429;28;19909;-81
2021/10/26 13:13:57;;;;;;;;;;;27.60;58.20;;;;;;5034253;28;19916;-80
2021/10/26 13:16:33;;;;;;;;;;;28.90;59.00;;;;;;5034317;28;20448;-81
2021/10/26 13:19:11;;;;;;;;;;;28.30;57.50;;;;;;5034298;28;19905;-80
2021/10/26 13:21:37;;;;;;;;;;;27.40;59.50;;;;;;5034288;28;20371;-81
2021/10/26 13:24:03;;;;;;;;;;;27.10;60.20;;;;;;5032829;28;19912;-82
2021/10/26 13:26:30;;;;;;;;;;;27.20;60.60;;;;;;5034379;28;19905;-82
2021/10/26 13:28:56;;;;;;;;;;;27.70;60.30;;;;;;5033989;28;20259;-81
2021/10/26 13:31:22;;;;;;;;;;;28.00;59.70;;;;;;5034609;28;19905;-81
2021/10/26 13:33:47;;;;;;;;;;;27.30;62.90;;;;;;5033888;28;19916;-81
2021/10/26 13:36:16;;;;;;;;;;;27.90;61.70;;;;;;5049287;28;19905;-81
2021/10/26 13:38:42;;;;;;;;;;;28.20;59.00;;;;;;5033733;28;19944;-80
2021/10/26 13:41:08;;;;;;;;;;;28.30;60.00;;;;;;5033892;28;19905;-81
2021/10/26 13:43:34;;;;;;;;;;;27.80;61.00;;;;;;5033892;28;20365;-79
2021/10/26 13:46:01;;;;;;;;;;;28.80;59.60;;;;;;5033829;28;19932;-81
2021/10/26 13:48:33;;;;;;;;;;;28.20;59.30;;;;;;5033786;28;20288;-79
2021/10/26 13:50:58;;;;;;;;;;;28.50;59.90;;;;;;5032459;28;20335;-82
2021/10/26 13:53:24;;;;;;;;;;;29.30;57.70;;;;;;5033650;28;19909;-81
2021/10/26 13:55:56;;;;;;;;;;;29.50;57.60;;;;;;5048996;28;19911;-82
2021/10/26 13:58:22;;;;;;;;;;;30.30;57.00;;;;;;5032122;28;20362;-79
2021/10/26 14:00:49;;;;;;;;;;;28.90;56.60;;;;;;5032370;28;20000;-81
2021/10/26 14:03:15;;;;;;;;;;;26.70;60.10;;;;;;5048966;28;19905;-81
2021/10/26 14:05:41;;;;;;;;;;;28.70;58.00;;;;;;5033804;28;19959;-80
2021/10/26 14:08:10;;;;;;;;;;;29.50;57.30;;;;;;5033932;28;19975;-79
2021/10/26 14:10:36;;;;;;;;;;;29.30;58.70;;;;;;5033847;28;19951;-82
2021/10/26 14:13:02;;;;;;;;;;;29.00;56.80;;;;;;5032147;28;19997;-81
2021/10/26 14:15:27;;;;;;;;;;;30.00;56.50;;;;;;5033505;28;19937;-79
2021/10/26 14:17:53;;;;;;;;;;;28.90;55.70;;;;;;5033517;28;20338;-80
2021/10/26 14:20:20;;;;;;;;;;;27.90;59.50;;;;;;5033473;28;19995;-80
2021/10/26 14:22:47;;;;;;;;;;;29.00;58.40;;;;;;5048771;28;19936;-81
2021/10/26 14:25:13;;;;;;;;;;;28.50;56.60;;;;;;5033395;28;19952;-81
2021/10/26 14:27:38;;;;;;;;;;;27.90;58.80;;;;;;5048705;28;19905;-81